createdAt,value
2022-12-18T00:02:01.607Z,28.73
2022-12-18T00:04:31.030Z,28.25
2022-12-18T00:07:04.144Z,29.10
2022-12-18T00:09:39.521Z,25.48
2022-12-18T00:14:50.432Z,28.55
2022-12-18T00:17:18.851Z,27.42
2022-12-18T00:19:52.621Z,30.00
2022-12-18T00:22:20.422Z,28.58
2022-12-18T00:24:48.515Z,28.27
2022-12-18T00:27:29.025Z,25.00
2022-12-18T00:29:59.541Z,24.70
2022-12-18T00:32:30.561Z,26.63
2022-12-18T00:35:01.364Z,26.67
2022-12-18T00:37:30.941Z,27.50
2022-12-18T00:40:10.665Z,27.73
2022-12-18T00:45:46.125Z,26.65
2022-12-18T00:50:46.126Z,25.75
2022-12-18T00:53:25.131Z,26.08
2022-12-18T00:55:52.885Z,25.05
2022-12-18T00:58:21.685Z,24.05
2022-12-18T01:00:52.903Z,27.05
2022-12-18T01:03:23.428Z,26.90
2022-12-18T01:06:06.127Z,26.02
2022-12-18T01:08:36.912Z,26.23
2022-12-18T01:11:15.758Z,24.55
2022-12-18T01:13:46.670Z,26.25
2022-12-18T01:16:16.219Z,27.25
2022-12-18T01:18:52.443Z,26.17
2022-12-18T01:21:21.401Z,24.63
2022-12-18T01:23:53.600Z,27.77
2022-12-18T01:26:22.111Z,25.92
2022-12-18T01:28:52.855Z,24.95
2022-12-18T01:31:25.613Z,24.92
2022-12-18T01:34:07.009Z,22.95
2022-12-18T01:36:38.717Z,24.80
2022-12-18T01:39:12.282Z,25.60
2022-12-18T01:42:04.499Z,23.35
2022-12-18T01:45:01.179Z,22.40
2022-12-18T01:47:36.310Z,23.88
2022-12-18T01:50:18.891Z,25.58
2022-12-18T01:52:57.908Z,23.05
2022-12-18T01:55:41.483Z,25.05
2022-12-18T01:58:09.526Z,25.07
2022-12-18T02:00:37.442Z,25.00
2022-12-18T02:03:05.783Z,24.15
2022-12-18T02:06:07.864Z,23.25
2022-12-18T02:09:11.884Z,22.80
2022-12-18T02:11:52.733Z,25.20
2022-12-18T02:14:41.943Z,23.30
2022-12-18T02:17:22.287Z,22.95
2022-12-18T02:20:17.904Z,22.55
2022-12-18T02:23:07.252Z,21.08
2022-12-18T02:26:20.530Z,21.83
2022-12-18T02:29:11.893Z,21.45
2022-12-18T02:31:50.978Z,23.50
2022-12-18T02:34:20.847Z,22.80
2022-12-18T02:36:55.728Z,22.25
2022-12-18T02:39:27.740Z,21.30
2022-12-18T02:42:09.069Z,25.00
2022-12-18T02:44:47.348Z,22.73
2022-12-18T02:47:32.326Z,23.52
2022-12-18T02:50:35.240Z,21.55
2022-12-18T02:53:39.591Z,22.35
2022-12-18T02:56:17.575Z,23.90
2022-12-18T02:59:14.994Z,22.70
2022-12-18T03:01:56.558Z,21.02
2022-12-18T03:04:33.607Z,19.77
2022-12-18T03:07:16.593Z,20.95
2022-12-18T03:09:49.637Z,22.15
2022-12-18T03:12:32.096Z,20.15
2022-12-18T03:15:09.544Z,22.15
2022-12-18T03:17:44.799Z,20.88
2022-12-18T03:20:18.547Z,21.00
2022-12-18T03:22:55.346Z,21.83
2022-12-18T03:25:31.548Z,18.48
2022-12-18T03:28:03.687Z,19.75
2022-12-18T03:30:34.971Z,20.45
2022-12-18T03:33:46.266Z,19.38
2022-12-18T03:36:16.199Z,19.52
2022-12-18T03:38:43.952Z,20.50
2022-12-18T03:41:29.556Z,19.15
2022-12-18T03:45:06.245Z,18.75
2022-12-18T03:48:11.204Z,21.00
2022-12-18T03:51:00.675Z,20.60
2022-12-18T03:53:53.599Z,18.00
2022-12-18T03:56:28.723Z,19.65
2022-12-18T03:58:59.265Z,18.58
2022-12-18T04:01:42.797Z,19.85
2022-12-18T04:04:23.901Z,18.40
2022-12-18T04:06:56.084Z,18.23
2022-12-18T04:09:25.696Z,20.92
2022-12-18T04:11:55.367Z,19.13
2022-12-18T04:14:28.049Z,16.90
2022-12-18T04:17:15.050Z,18.33
2022-12-18T04:19:48.812Z,18.05
2022-12-18T04:22:23.712Z,17.75
2022-12-18T04:25:09.294Z,20.17
2022-12-18T04:27:41.752Z,21.05
2022-12-18T04:30:14.306Z,19.20
2022-12-18T04:32:46.480Z,19.40
2022-12-18T04:35:17.070Z,20.50
2022-12-18T04:37:50.817Z,17.73
2022-12-18T04:40:18.794Z,21.45
2022-12-18T04:42:49.184Z,19.25
2022-12-18T04:45:19.908Z,18.38
2022-12-18T04:47:48.063Z,21.90
2022-12-18T04:50:16.110Z,20.05
2022-12-18T04:52:47.080Z,20.02
2022-12-18T04:55:15.115Z,20.60
2022-12-18T04:57:43.385Z,21.65
2022-12-18T05:00:14.630Z,21.20
2022-12-18T05:02:46.037Z,20.88
2022-12-18T05:05:14.570Z,20.48
2022-12-18T05:07:42.612Z,20.02
2022-12-18T05:10:19.678Z,22.33
2022-12-18T05:13:00.502Z,20.45
2022-12-18T05:15:35.966Z,20.58
2022-12-18T05:18:06.026Z,22.27
2022-12-18T05:20:36.576Z,19.05
2022-12-18T05:23:04.559Z,20.30
2022-12-18T05:25:33.854Z,19.35
2022-12-18T05:28:06.325Z,21.10
2022-12-18T05:30:35.536Z,21.17
2022-12-18T05:33:07.925Z,22.35
2022-12-18T05:35:35.972Z,21.90
2022-12-18T05:38:03.918Z,21.95
2022-12-18T05:40:32.254Z,19.05
2022-12-18T05:43:06.251Z,23.33
2022-12-18T05:45:39.772Z,23.50
2022-12-18T05:48:10.485Z,23.85
2022-12-18T05:50:41.595Z,19.83
2022-12-18T05:53:37.436Z,20.00
2022-12-18T05:56:11.896Z,19.70
2022-12-18T05:58:40.586Z,21.88
2022-12-18T06:01:36.244Z,20.33
2022-12-18T06:04:06.569Z,17.67
2022-12-18T06:06:39.145Z,19.33
2022-12-18T06:09:09.511Z,20.75
2022-12-18T06:14:18.431Z,20.35
2022-12-18T06:16:51.456Z,21.13
2022-12-18T06:19:19.487Z,22.10
2022-12-18T06:22:04.519Z,23.27
2022-12-18T06:24:33.840Z,21.90
2022-12-18T06:27:02.812Z,21.90
2022-12-18T06:29:40.957Z,22.05
2022-12-18T06:32:10.182Z,23.50
2022-12-18T06:34:40.536Z,21.10
2022-12-18T06:37:08.479Z,21.73
2022-12-18T06:39:39.431Z,18.95
2022-12-18T06:42:08.560Z,21.90
2022-12-18T06:44:42.243Z,21.52
2022-12-18T06:47:11.455Z,20.40
2022-12-18T06:49:42.472Z,19.42
2022-12-18T06:52:10.595Z,23.42
2022-12-18T06:54:41.905Z,21.90
2022-12-18T06:57:22.098Z,21.23
2022-12-18T06:59:50.530Z,19.50
2022-12-18T07:02:19.220Z,19.90
2022-12-18T07:04:55.028Z,19.33
2022-12-18T07:07:29.272Z,18.00
2022-12-18T07:09:57.656Z,21.77
2022-12-18T07:12:25.802Z,19.05
2022-12-18T07:14:57.184Z,20.80
2022-12-18T07:17:25.692Z,19.27
2022-12-18T07:19:57.902Z,20.48
2022-12-18T07:22:27.247Z,20.80
2022-12-18T07:25:06.313Z,20.10
2022-12-18T07:27:34.356Z,19.15
2022-12-18T07:30:10.875Z,20.88
2022-12-18T07:32:52.361Z,18.50
2022-12-18T07:35:24.797Z,20.73
2022-12-18T07:37:56.442Z,20.88
2022-12-18T07:40:25.263Z,19.25
2022-12-18T07:42:59.040Z,19.60
2022-12-18T07:45:29.289Z,19.85
2022-12-18T07:48:11.919Z,17.60
2022-12-18T07:50:41.027Z,19.65
2022-12-18T07:53:10.177Z,18.63
2022-12-18T07:56:05.395Z,20.15
2022-12-18T07:58:37.993Z,19.85
2022-12-18T08:01:22.014Z,20.38
2022-12-18T08:03:58.910Z,21.55
2022-12-18T08:06:27.167Z,19.88
2022-12-18T08:08:57.195Z,21.08
2022-12-18T08:11:38.809Z,22.77
2022-12-18T08:14:15.317Z,20.63
2022-12-18T08:16:52.469Z,20.60
2022-12-18T08:19:28.366Z,22.08
2022-12-18T08:22:02.723Z,20.75
2022-12-18T08:24:33.947Z,20.35
2022-12-18T08:29:50.913Z,20.50
2022-12-18T08:32:19.144Z,19.92
2022-12-18T08:34:47.113Z,22.02
2022-12-18T08:37:17.892Z,23.02
2022-12-18T08:39:46.903Z,20.95
2022-12-18T08:42:34.264Z,20.27
2022-12-18T08:47:40.306Z,19.83
2022-12-18T08:50:16.165Z,20.55
2022-12-18T08:52:45.228Z,20.45
2022-12-18T08:55:13.109Z,21.27
2022-12-18T08:57:41.014Z,22.63
2022-12-18T09:00:14.890Z,21.17
2022-12-18T09:02:47.403Z,20.70
2022-12-18T09:05:20.918Z,20.85
2022-12-18T09:07:49.522Z,19.80
2022-12-18T09:13:49.543Z,17.40
2022-12-18T09:16:32.241Z,20.92
2022-12-18T09:19:11.206Z,18.52
2022-12-18T09:21:47.788Z,22.17
2022-12-18T09:24:40.943Z,19.48
2022-12-18T09:27:09.303Z,19.02
2022-12-18T09:29:38.517Z,20.33
2022-12-18T09:32:09.360Z,19.77
2022-12-18T09:34:39.722Z,20.60
2022-12-18T09:37:07.773Z,21.55
2022-12-18T09:39:41.675Z,22.00
2022-12-18T09:42:21.591Z,20.20
2022-12-18T09:44:59.459Z,21.35
2022-12-18T09:47:40.476Z,19.42
2022-12-18T09:52:50.725Z,19.52
2022-12-18T09:55:37.572Z,18.15
2022-12-18T09:58:15.088Z,21.73
2022-12-18T10:00:43.445Z,18.10
2022-12-18T10:03:15.109Z,19.35
2022-12-18T10:06:05.405Z,20.38
2022-12-18T10:08:49.670Z,18.90
2022-12-18T10:11:42.688Z,17.98
2022-12-18T10:14:30.844Z,18.98
2022-12-18T10:17:27.337Z,18.45
2022-12-18T10:20:04.092Z,19.15
2022-12-18T10:22:45.799Z,20.63
2022-12-18T10:25:31.764Z,19.38
2022-12-18T10:28:09.390Z,19.95
2022-12-18T10:30:42.443Z,20.88
2022-12-18T10:33:17.131Z,17.75
2022-12-18T10:35:49.587Z,18.45
2022-12-18T10:38:29.523Z,18.40
2022-12-18T10:40:58.670Z,19.70
2022-12-18T10:43:31.129Z,18.30
2022-12-18T10:46:22.943Z,19.83
2022-12-18T10:48:57.277Z,18.08
2022-12-18T10:51:37.538Z,16.25
2022-12-18T10:54:14.733Z,18.45
2022-12-18T10:56:44.418Z,20.70
2022-12-18T10:59:16.045Z,17.80
2022-12-18T11:01:49.994Z,18.98
2022-12-18T11:04:23.800Z,17.27
2022-12-18T11:07:06.418Z,18.50
2022-12-18T11:09:41.317Z,16.40
2022-12-18T11:12:12.088Z,19.38
2022-12-18T11:14:46.840Z,16.15
2022-12-18T11:17:25.867Z,17.38
2022-12-18T11:20:34.495Z,19.30
2022-12-18T11:23:08.598Z,19.45
2022-12-18T11:25:39.194Z,18.73
2022-12-18T11:31:14.889Z,18.77
2022-12-18T11:34:11.948Z,19.88
2022-12-18T11:36:49.650Z,20.85
2022-12-18T11:39:19.757Z,21.30
2022-12-18T11:44:43.604Z,21.92
2022-12-18T11:47:16.678Z,23.60
2022-12-18T11:49:48.830Z,19.17
2022-12-18T11:52:22.360Z,19.33
2022-12-18T11:54:54.148Z,22.02
2022-12-18T11:57:50.136Z,19.92
2022-12-18T12:00:24.945Z,20.98
2022-12-18T12:03:17.633Z,21.77
2022-12-18T12:06:07.501Z,22.23
2022-12-18T12:09:01.984Z,22.83
2022-12-18T12:11:53.417Z,22.50
2022-12-18T12:14:56.473Z,20.10
2022-12-18T12:17:28.213Z,22.08
2022-12-18T12:20:17.794Z,22.30
2022-12-18T12:23:30.406Z,20.67
2022-12-18T12:26:12.634Z,18.95
2022-12-18T12:29:21.482Z,18.40
2022-12-18T12:32:08.728Z,20.08
2022-12-18T12:35:07.784Z,20.05
2022-12-18T12:38:14.486Z,20.10
2022-12-18T12:40:55.374Z,20.23
2022-12-18T12:43:51.117Z,21.08
2022-12-18T12:46:24.796Z,18.42
2022-12-18T12:49:14.722Z,23.58
2022-12-18T12:51:46.923Z,18.42
2022-12-18T12:54:23.131Z,21.88
2022-12-18T12:57:18.155Z,20.85
2022-12-18T12:59:49.424Z,21.83
2022-12-18T13:02:45.420Z,19.35
2022-12-18T13:05:50.784Z,23.52
2022-12-18T13:08:44.602Z,21.35
2022-12-18T13:11:57.964Z,22.27
2022-12-18T13:14:32.138Z,20.73
2022-12-18T13:17:22.098Z,18.95
2022-12-18T13:20:11.051Z,21.20
2022-12-18T13:22:43.295Z,20.75
2022-12-18T13:25:35.403Z,20.67
2022-12-18T13:28:10.028Z,17.17
2022-12-18T13:41:21.567Z,16.35
2022-12-18T13:45:25.323Z,15.13
2022-12-18T13:48:39.788Z,16.35
2022-12-18T13:51:29.645Z,15.60
2022-12-18T13:55:17.751Z,16.17
2022-12-18T14:22:34.921Z,12.65
2022-12-18T14:25:18.173Z,12.75
2022-12-18T14:28:56.960Z,16.30
2022-12-18T14:36:22.813Z,16.67
2022-12-18T14:39:26.828Z,13.95
2022-12-18T14:42:10.879Z,15.25
2022-12-18T14:45:43.419Z,14.80
2022-12-18T14:48:53.315Z,13.57
2022-12-18T14:51:36.072Z,14.93
2022-12-18T14:54:52.247Z,13.98
2022-12-18T14:58:11.705Z,13.57
2022-12-18T15:01:24.187Z,15.40
2022-12-18T15:04:59.801Z,15.27
2022-12-18T15:11:50.559Z,15.65
2022-12-18T15:14:45.750Z,11.15
2022-12-18T15:21:03.328Z,13.90
2022-12-18T15:23:39.807Z,13.05
2022-12-18T15:26:31.112Z,13.25
2022-12-18T15:29:24.364Z,12.07
2022-12-18T15:32:06.369Z,13.45
2022-12-18T15:34:43.570Z,11.32
2022-12-18T15:37:12.962Z,12.63
2022-12-18T15:39:43.109Z,13.05
2022-12-18T15:42:39.506Z,12.98
2022-12-18T15:45:39.595Z,12.18
2022-12-18T15:48:33.444Z,12.40
2022-12-18T15:51:44.676Z,10.70
2022-12-18T15:55:15.117Z,11.65
2022-12-18T15:57:57.772Z,11.32
2022-12-18T16:01:05.466Z,10.60
2022-12-18T16:04:38.320Z,11.38
2022-12-18T16:07:15.301Z,9.15
2022-12-18T16:09:53.692Z,8.93
2022-12-18T16:13:02.242Z,10.15
2022-12-18T16:15:53.529Z,9.60
2022-12-18T16:38:42.411Z,5.68
2022-12-18T17:05:02.571Z,5.25
2022-12-18T17:14:19.518Z,5.72
2022-12-18T17:17:21.499Z,5.28
2022-12-18T17:47:10.451Z,5.70
2022-12-18T17:50:12.135Z,6.00
2022-12-18T17:52:53.468Z,5.20
2022-12-18T17:56:00.967Z,5.47
2022-12-18T17:59:07.855Z,5.03
2022-12-18T18:09:38.750Z,4.35
2022-12-18T18:18:56.538Z,4.43
2022-12-18T18:25:36.783Z,5.43
2022-12-18T18:38:42.115Z,5.82
2022-12-18T18:49:31.758Z,5.15
2022-12-18T18:54:00.455Z,4.80
2022-12-18T19:00:08.786Z,5.37
2022-12-18T19:14:20.627Z,6.10
2022-12-18T19:19:59.186Z,5.60
2022-12-18T19:23:25.912Z,6.68
2022-12-18T19:27:38.919Z,4.90
2022-12-18T19:34:35.757Z,5.82
2022-12-18T19:37:10.960Z,5.85
2022-12-18T19:39:42.972Z,5.70
2022-12-18T19:42:13.775Z,6.88
2022-12-18T19:45:08.700Z,5.25
2022-12-18T19:47:50.120Z,5.47
2022-12-18T19:50:24.674Z,5.80
2022-12-18T19:52:55.247Z,6.20
2022-12-18T19:55:32.864Z,5.47
2022-12-18T19:58:02.936Z,5.53
2022-12-18T20:00:30.621Z,6.32
2022-12-18T20:03:07.608Z,6.47
2022-12-18T20:05:43.549Z,6.75
2022-12-18T20:10:53.662Z,6.32
2022-12-18T20:13:35.081Z,6.10
2022-12-18T20:16:06.832Z,5.22
2022-12-18T20:18:35.430Z,5.70
2022-12-18T20:21:03.553Z,6.45
2022-12-18T20:23:35.314Z,5.13
2022-12-18T20:26:04.947Z,6.03
2022-12-18T20:31:06.858Z,6.40
2022-12-18T20:33:36.801Z,5.30
2022-12-18T20:36:20.165Z,5.45
2022-12-18T20:38:54.717Z,6.47
2022-12-18T20:41:26.296Z,6.15
2022-12-18T20:43:58.786Z,5.75
2022-12-18T20:46:26.522Z,5.60
2022-12-18T20:49:13.581Z,5.85
2022-12-18T20:51:44.192Z,5.23
2022-12-18T20:54:14.743Z,4.63
2022-12-18T20:56:42.687Z,3.88
2022-12-18T20:59:11.892Z,4.70
2022-12-18T21:02:00.898Z,5.38
2022-12-18T21:04:29.300Z,5.40
2022-12-18T21:07:04.876Z,5.18
2022-12-18T21:09:42.634Z,3.83
2022-12-18T21:12:34.868Z,3.65
2022-12-18T21:15:22.822Z,4.28
2022-12-18T21:17:59.380Z,3.80
2022-12-18T21:20:27.301Z,4.18
2022-12-18T21:23:01.382Z,3.92
2022-12-18T21:25:45.599Z,3.38
2022-12-18T21:28:21.698Z,3.70
2022-12-18T21:30:52.665Z,3.28
2022-12-18T21:33:24.224Z,3.65
2022-12-18T21:36:12.465Z,3.22
2022-12-18T21:38:40.616Z,4.03
2022-12-18T21:41:28.988Z,3.90
2022-12-18T21:44:07.984Z,4.32
2022-12-18T21:46:39.328Z,4.30
2022-12-18T21:49:11.954Z,3.75
2022-12-18T21:51:40.238Z,3.88
2022-12-18T21:54:12.433Z,4.13
2022-12-18T21:56:58.987Z,3.77
2022-12-18T21:59:35.282Z,3.40
2022-12-18T22:02:15.784Z,3.03
2022-12-18T22:04:53.209Z,3.55
2022-12-18T22:07:39.877Z,2.70
2022-12-18T22:12:54.830Z,2.78
2022-12-18T22:19:27.385Z,2.65
2022-12-18T22:24:29.449Z,2.28
2022-12-18T22:27:04.498Z,3.22
2022-12-18T22:30:09.510Z,2.75
2022-12-18T22:32:51.315Z,2.40
2022-12-18T22:35:35.823Z,2.88
2022-12-18T22:38:15.412Z,2.15
2022-12-18T22:40:55.116Z,2.30
2022-12-18T22:46:32.002Z,2.00
2022-12-18T22:49:03.211Z,2.15
2022-12-18T22:51:33.963Z,3.10
2022-12-18T22:54:10.873Z,1.92
2022-12-18T22:56:46.262Z,1.90
2022-12-18T22:59:21.865Z,1.90
2022-12-18T23:01:59.937Z,2.72
2022-12-18T23:04:36.290Z,3.08
2022-12-18T23:07:16.799Z,3.42
2022-12-18T23:09:50.802Z,3.08
2022-12-18T23:12:28.202Z,2.38
2022-12-18T23:14:56.335Z,2.75
2022-12-18T23:17:24.203Z,3.53
2022-12-18T23:20:00.990Z,2.60
2022-12-18T23:22:30.935Z,3.47
2022-12-18T23:25:08.190Z,3.50
2022-12-18T23:27:47.008Z,2.65
2022-12-18T23:30:17.577Z,2.92
2022-12-18T23:32:48.425Z,3.80
2022-12-18T23:35:17.360Z,3.05
2022-12-18T23:38:00.949Z,2.78
2022-12-18T23:40:38.176Z,2.85
2022-12-18T23:43:08.525Z,2.92
2022-12-18T23:45:39.436Z,1.98
2022-12-18T23:48:07.283Z,2.65
2022-12-18T23:50:37.696Z,2.15
2022-12-18T23:53:05.883Z,2.03
2022-12-18T23:55:45.194Z,2.38
2022-12-18T23:58:19.348Z,2.45
